Racecast

Tyrell Grant Jr

360 Elite Track Club (VA) · 11 · Compare head to head

Athlete rating 122.9 2022 TF season
Best race 122.9 TF
Races 30
Seasons 5 2021 — 2025

RankedNation #6169·VA #55·Team #1 ?

Rating scale ?
Speed rating — all races

Track & Field

TF speed rating

2025 TF

360 Elite Track Club (VA) · Grade 11

Date Meet Event Result Place Rating Difficulty PR/SR Flags
2025-05-25 HR Hurricanes CAT 5 Invite 100m 11.03 1st · 1st on team -0.035 ★PR SR
2025-04-27 TRACK 757 Classic 100m 11.25 2nd · 2nd on team -0.029 PR SR
2025-04-27 TRACK 757 Classic 100m 11.22 1st · 1st on team -0.029 PR SR
2024-12-15 VB Oceanfront Invitational 60m 7.26 5th · 1st on team -0.036 ★PR SR
2024-12-15 VB Oceanfront Invitational 200m 23.62 2nd · 1st on team -0.036 SR
2024-12-15 VB Oceanfront Invitational 60m 7.28 6th · 2nd on team -0.036
2024-12-15 VB Oceanfront Invitational 400m 53.29 1st · 1st on team -0.036 ★PR SR

2024 TF

360 Elite Track Club (VA) · Grade 10

Date Meet Event Result Place Rating Difficulty PR/SR Flags
2024-02-03 BWSP Queens and Kings 55m 6.7 3rd · 1st on team -0.014 ★PR SR
2024-02-03 BWSP Queens and Kings 55m 6.77 4th · 2nd on team -0.014
2024-02-03 BWSP Queens and Kings 200m 23.29 3rd · 1st on team -0.014 ★PR SR
2024-01-06 BWSP Queens and Kings 55m 6.8 5th · 1st on team -0.024 PR SR
2024-01-06 BWSP Queens and Kings 400m 54.12 3rd · 1st on team -0.024 PR SR

2023 TF

360 Elite Track Club (VA) · Grade 9

Date Meet Event Result Place Rating Difficulty PR/SR Flags
2023-03-19 adidas Indoor Nationals 60m 7.52 19th · 1st on team -0.036 PR SR
2023-03-19 adidas Indoor Nationals 200m 24.45 20th · 1st on team -0.036 PR SR

2022 TF 122.9

360 Elite Track Club (VA) · Grade 8

Date Meet Event Result Place Rating Difficulty PR/SR Flags
2022-01-02 The 757 Showdown 60m 8.05 4th · 2nd on team -0.036 PR SR
2022-01-02 The 757 Showdown 60m 8.13 7th · 5th on team -0.036
2022-01-02 The 757 Showdown 400m 59.99 3rd · 2nd on team -0.036 SR
2021-12-19 Grant Holloway AAU Invitational 800m 2:29.72 4th · 1st on team 122.9 -0.036 ★PR ★R SR RSR
2021-12-19 Grant Holloway AAU Invitational 400m 1:01.21 10th · 2nd on team -0.036 SR

2021 TF

360 Elite Track Club (VA) · Grade 7

Date Meet Event Result Place Rating Difficulty PR/SR Flags
2021-06-27 AAU Region 05 National Qualifier 400m 57.28 2nd · 1st on team -0.027 PR SR
2021-06-27 AAU Region 05 National Qualifier 200m 25.81 7th · 2nd on team -0.027 PR SR
2021-06-27 AAU Region 05 National Qualifier 200m 25.31 4th · 1st on team -0.027 PR SR
2021-06-27 AAU Region 05 National Qualifier 100m 12.82 6th · 2nd on team -0.027 PR SR
2021-06-27 AAU Region 05 National Qualifier 100m 12.56 3rd · 1st on team -0.027 PR SR
2021-06-13 AAU Virginia District Qualifier 400m 1:00.88 5th · 1st on team -0.027
2021-06-13 AAU Virginia District Qualifier 200m 25.83 4th · 1st on team -0.027 PR SR
2021-06-13 AAU Virginia District Qualifier 100m 12.89 3rd · 1st on team -0.027 PR SR
2021-05-22 P-Town Championship Series #3 400m 58.98 6th · 1st on team -0.029 PR SR
2021-01-17 VA Showcase 55m 7.52 7th · 1st on team -0.036 PR SR
2021-01-17 VA Showcase 200m 26.75 13th · 1st on team -0.036 PR SR